sensor_id;sensor_type;location;lat;lon;timestamp;P1;durP1;ratioP1;P2;durP2;ratioP2
30299;SDS011;17110;52.602;12.998;2023-08-07T00:02:06;11.57;;;7.53;;
30299;SDS011;17110;52.602;12.998;2023-08-07T00:04:35;9.48;;;7.00;;
30299;SDS011;17110;52.602;12.998;2023-08-07T00:07:02;11.50;;;6.78;;
30299;SDS011;17110;52.602;12.998;2023-08-07T00:09:28;7.07;;;5.97;;
30299;SDS011;17110;52.602;12.998;2023-08-07T00:11:54;9.45;;;6.82;;
30299;SDS011;17110;52.602;12.998;2023-08-07T00:14:19;9.20;;;6.28;;
30299;SDS011;17110;52.602;12.998;2023-08-07T00:16:45;9.27;;;6.80;;
30299;SDS011;17110;52.602;12.998;2023-08-07T00:19:11;12.18;;;6.95;;
30299;SDS011;17110;52.602;12.998;2023-08-07T00:21:38;8.98;;;6.15;;
30299;SDS011;17110;52.602;12.998;2023-08-07T00:24:05;9.07;;;5.80;;
30299;SDS011;17110;52.602;12.998;2023-08-07T00:26:31;10.93;;;6.60;;
30299;SDS011;17110;52.602;12.998;2023-08-07T00:28:57;9.50;;;6.28;;
30299;SDS011;17110;52.602;12.998;2023-08-07T00:31:22;9.88;;;6.85;;
30299;SDS011;17110;52.602;12.998;2023-08-07T00:33:48;7.97;;;6.78;;
30299;SDS011;17110;52.602;12.998;2023-08-07T00:36:13;9.23;;;6.50;;
30299;SDS011;17110;52.602;12.998;2023-08-07T00:38:39;9.60;;;6.53;;
30299;SDS011;17110;52.602;12.998;2023-08-07T00:41:06;9.50;;;6.95;;
30299;SDS011;17110;52.602;12.998;2023-08-07T00:43:32;9.57;;;6.72;;
30299;SDS011;17110;52.602;12.998;2023-08-07T00:45:57;6.85;;;6.25;;
30299;SDS011;17110;52.602;12.998;2023-08-07T00:48:23;9.45;;;6.18;;
30299;SDS011;17110;52.602;12.998;2023-08-07T00:50:49;7.90;;;5.93;;
30299;SDS011;17110;52.602;12.998;2023-08-07T00:53:16;10.73;;;6.40;;
30299;SDS011;17110;52.602;12.998;2023-08-07T00:55:42;7.40;;;6.00;;
30299;SDS011;17110;52.602;12.998;2023-08-07T00:58:09;9.45;;;6.28;;
30299;SDS011;17110;52.602;12.998;2023-08-07T01:00:35;9.82;;;5.85;;
30299;SDS011;17110;52.602;12.998;2023-08-07T01:03:01;7.10;;;5.90;;
30299;SDS011;17110;52.602;12.998;2023-08-07T01:05:30;7.85;;;6.30;;
30299;SDS011;17110;52.602;12.998;2023-08-07T01:07:56;7.82;;;6.03;;
30299;SDS011;17110;52.602;12.998;2023-08-07T01:10:24;7.30;;;5.93;;
30299;SDS011;17110;52.602;12.998;2023-08-07T01:12:59;7.18;;;5.82;;
30299;SDS011;17110;52.602;12.998;2023-08-07T01:15:32;7.68;;;5.93;;
30299;SDS011;17110;52.602;12.998;2023-08-07T01:17:59;8.23;;;6.40;;
30299;SDS011;17110;52.602;12.998;2023-08-07T01:20:30;7.75;;;6.15;;
30299;SDS011;17110;52.602;12.998;2023-08-07T01:22:57;10.07;;;6.27;;
30299;SDS011;17110;52.602;12.998;2023-08-07T01:25:23;10.88;;;6.18;;
30299;SDS011;17110;52.602;12.998;2023-08-07T01:27:50;6.88;;;5.82;;
30299;SDS011;17110;52.602;12.998;2023-08-07T01:30:22;6.63;;;5.97;;
30299;SDS011;17110;52.602;12.998;2023-08-07T01:32:54;7.68;;;6.10;;
30299;SDS011;17110;52.602;12.998;2023-08-07T01:35:27;9.55;;;6.28;;
30299;SDS011;17110;52.602;12.998;2023-08-07T01:37:57;7.18;;;5.97;;
30299;SDS011;17110;52.602;12.998;2023-08-07T01:40:24;6.93;;;5.82;;
30299;SDS011;17110;52.602;12.998;2023-08-07T01:42:52;12.18;;;6.95;;
30299;SDS011;17110;52.602;12.998;2023-08-07T01:45:22;9.40;;;6.35;;
30299;SDS011;17110;52.602;12.998;2023-08-07T01:47:48;10.38;;;6.28;;
30299;SDS011;17110;52.602;12.998;2023-08-07T01:50:14;10.48;;;5.90;;
30299;SDS011;17110;52.602;12.998;2023-08-07T01:52:39;7.95;;;6.90;;
30299;SDS011;17110;52.602;12.998;2023-08-07T01:55:07;8.93;;;7.28;;
30299;SDS011;17110;52.602;12.998;2023-08-07T01:57:33;12.85;;;7.20;;
30299;SDS011;17110;52.602;12.998;2023-08-07T01:59:59;10.45;;;7.60;;
30299;SDS011;17110;52.602;12.998;2023-08-07T02:02:25;10.80;;;7.57;;
30299;SDS011;17110;52.602;12.998;2023-08-07T02:04:50;11.20;;;7.82;;
30299;SDS011;17110;52.602;12.998;2023-08-07T02:07:16;9.50;;;7.80;;
30299;SDS011;17110;52.602;12.998;2023-08-07T02:09:42;13.25;;;7.90;;
30299;SDS011;17110;52.602;12.998;2023-08-07T02:12:09;11.20;;;8.40;;
30299;SDS011;17110;52.602;12.998;2023-08-07T02:14:34;9.25;;;8.27;;
30299;SDS011;17110;52.602;12.998;2023-08-07T02:17:00;9.63;;;8.35;;
30299;SDS011;17110;52.602;12.998;2023-08-07T02:19:26;9.55;;;7.80;;
30299;SDS011;17110;52.602;12.998;2023-08-07T02:21:51;12.00;;;9.07;;
30299;SDS011;17110;52.602;12.998;2023-08-07T02:24:17;12.25;;;8.95;;
30299;SDS011;17110;52.602;12.998;2023-08-07T02:26:43;11.50;;;8.40;;
30299;SDS011;17110;52.602;12.998;2023-08-07T02:29:12;11.15;;;8.40;;
30299;SDS011;17110;52.602;12.998;2023-08-07T02:31:38;9.02;;;8.07;;
30299;SDS011;17110;52.602;12.998;2023-08-07T02:34:04;11.00;;;8.93;;
30299;SDS011;17110;52.602;12.998;2023-08-07T02:36:29;13.80;;;8.82;;
30299;SDS011;17110;52.602;12.998;2023-08-07T02:38:55;12.73;;;9.38;;
30299;SDS011;17110;52.602;12.998;2023-08-07T02:41:21;9.45;;;8.55;;
30299;SDS011;17110;52.602;12.998;2023-08-07T02:43:46;10.52;;;9.18;;
30299;SDS011;17110;52.602;12.998;2023-08-07T02:46:16;15.18;;;9.05;;
30299;SDS011;17110;52.602;12.998;2023-08-07T02:48:42;9.82;;;8.65;;
30299;SDS011;17110;52.602;12.998;2023-08-07T02:51:08;13.43;;;9.18;;
30299;SDS011;17110;52.602;12.998;2023-08-07T02:53:34;13.45;;;9.20;;
30299;SDS011;17110;52.602;12.998;2023-08-07T02:55:59;7.82;;;7.13;;
30299;SDS011;17110;52.602;12.998;2023-08-07T02:58:25;14.02;;;8.82;;
30299;SDS011;17110;52.602;12.998;2023-08-07T03:00:51;13.45;;;9.68;;
30299;SDS011;17110;52.602;12.998;2023-08-07T03:03:18;14.95;;;9.20;;
30299;SDS011;17110;52.602;12.998;2023-08-07T03:05:47;12.10;;;9.68;;
30299;SDS011;17110;52.602;12.998;2023-08-07T03:08:13;11.30;;;9.45;;
30299;SDS011;17110;52.602;12.998;2023-08-07T03:10:39;10.45;;;9.35;;
30299;SDS011;17110;52.602;12.998;2023-08-07T03:13:05;12.90;;;9.07;;
30299;SDS011;17110;52.602;12.998;2023-08-07T03:15:31;15.80;;;10.68;;
30299;SDS011;17110;52.602;12.998;2023-08-07T03:17:57;10.70;;;9.40;;
30299;SDS011;17110;52.602;12.998;2023-08-07T03:20:23;14.23;;;10.40;;
30299;SDS011;17110;52.602;12.998;2023-08-07T03:22:49;10.57;;;9.48;;
30299;SDS011;17110;52.602;12.998;2023-08-07T03:25:15;10.80;;;8.95;;
30299;SDS011;17110;52.602;12.998;2023-08-07T03:27:44;12.10;;;10.07;;
30299;SDS011;17110;52.602;12.998;2023-08-07T03:30:10;9.60;;;8.70;;
30299;SDS011;17110;52.602;12.998;2023-08-07T03:32:36;11.30;;;9.13;;
30299;SDS011;17110;52.602;12.998;2023-08-07T03:35:02;10.75;;;9.38;;
30299;SDS011;17110;52.602;12.998;2023-08-07T03:37:29;10.00;;;8.30;;
30299;SDS011;17110;52.602;12.998;2023-08-07T03:39:55;10.23;;;9.23;;
30299;SDS011;17110;52.602;12.998;2023-08-07T03:42:20;11.52;;;9.20;;
30299;SDS011;17110;52.602;12.998;2023-08-07T03:44:46;13.27;;;8.82;;
30299;SDS011;17110;52.602;12.998;2023-08-07T03:47:12;13.95;;;8.15;;
30299;SDS011;17110;52.602;12.998;2023-08-07T03:49:37;11.18;;;8.25;;
30299;SDS011;17110;52.602;12.998;2023-08-07T03:52:04;12.68;;;8.57;;
30299;SDS011;17110;52.602;12.998;2023-08-07T03:54:31;11.82;;;9.00;;
30299;SDS011;17110;52.602;12.998;2023-08-07T03:56:57;13.20;;;9.05;;
30299;SDS011;17110;52.602;12.998;2023-08-07T03:59:23;12.35;;;8.50;;
30299;SDS011;17110;52.602;12.998;2023-08-07T04:01:48;9.63;;;8.13;;
30299;SDS011;17110;52.602;12.998;2023-08-07T04:04:14;13.02;;;8.30;;
30299;SDS011;17110;52.602;12.998;2023-08-07T04:06:40;11.35;;;8.20;;
30299;SDS011;17110;52.602;12.998;2023-08-07T04:09:05;8.70;;;7.80;;
30299;SDS011;17110;52.602;12.998;2023-08-07T04:11:32;9.77;;;7.72;;
30299;SDS011;17110;52.602;12.998;2023-08-07T04:13:58;9.70;;;7.80;;
30299;SDS011;17110;52.602;12.998;2023-08-07T04:16:23;9.35;;;7.80;;
30299;SDS011;17110;52.602;12.998;2023-08-07T04:18:49;10.18;;;8.00;;
30299;SDS011;17110;52.602;12.998;2023-08-07T04:21:16;11.75;;;8.60;;
30299;SDS011;17110;52.602;12.998;2023-08-07T04:23:41;12.32;;;7.95;;
30299;SDS011;17110;52.602;12.998;2023-08-07T04:26:07;9.27;;;7.65;;
30299;SDS011;17110;52.602;12.998;2023-08-07T04:28:34;9.75;;;7.18;;
30299;SDS011;17110;52.602;12.998;2023-08-07T04:31:00;8.02;;;6.72;;
30299;SDS011;17110;52.602;12.998;2023-08-07T04:33:26;12.63;;;8.13;;
30299;SDS011;17110;52.602;12.998;2023-08-07T04:35:51;11.55;;;7.57;;
30299;SDS011;17110;52.602;12.998;2023-08-07T04:38:17;7.93;;;6.35;;
30299;SDS011;17110;52.602;12.998;2023-08-07T04:40:43;10.57;;;7.57;;
30299;SDS011;17110;52.602;12.998;2023-08-07T04:43:09;8.95;;;7.32;;
30299;SDS011;17110;52.602;12.998;2023-08-07T04:45:36;7.82;;;6.72;;
30299;SDS011;17110;52.602;12.998;2023-08-07T04:48:02;8.90;;;5.80;;
30299;SDS011;17110;52.602;12.998;2023-08-07T04:50:28;8.98;;;7.05;;
30299;SDS011;17110;52.602;12.998;2023-08-07T04:52:54;10.65;;;6.05;;
30299;SDS011;17110;52.602;12.998;2023-08-07T04:55:20;7.25;;;6.53;;
30299;SDS011;17110;52.602;12.998;2023-08-07T04:57:45;9.85;;;7.03;;
30299;SDS011;17110;52.602;12.998;2023-08-07T05:00:11;7.10;;;6.13;;
30299;SDS011;17110;52.602;12.998;2023-08-07T05:02:42;13.77;;;6.75;;
30299;SDS011;17110;52.602;12.998;2023-08-07T05:05:08;7.32;;;5.93;;
30299;SDS011;17110;52.602;12.998;2023-08-07T05:07:33;8.50;;;5.63;;
30299;SDS011;17110;52.602;12.998;2023-08-07T05:09:59;5.90;;;5.35;;
30299;SDS011;17110;52.602;12.998;2023-08-07T05:12:25;6.32;;;5.03;;
30299;SDS011;17110;52.602;12.998;2023-08-07T05:14:52;6.85;;;4.90;;
30299;SDS011;17110;52.602;12.998;2023-08-07T05:17:17;5.45;;;4.93;;
30299;SDS011;17110;52.602;12.998;2023-08-07T05:19:44;7.07;;;4.53;;
30299;SDS011;17110;52.602;12.998;2023-08-07T05:22:10;7.30;;;5.28;;
30299;SDS011;17110;52.602;12.998;2023-08-07T05:24:41;5.53;;;4.15;;
30299;SDS011;17110;52.602;12.998;2023-08-07T05:27:08;10.07;;;4.90;;
30299;SDS011;17110;52.602;12.998;2023-08-07T05:29:37;5.85;;;4.20;;
30299;SDS011;17110;52.602;12.998;2023-08-07T05:32:03;8.18;;;4.22;;
30299;SDS011;17110;52.602;12.998;2023-08-07T05:34:29;5.82;;;3.55;;
30299;SDS011;17110;52.602;12.998;2023-08-07T05:36:56;7.90;;;4.10;;
30299;SDS011;17110;52.602;12.998;2023-08-07T05:39:22;5.97;;;3.72;;
30299;SDS011;17110;52.602;12.998;2023-08-07T05:41:47;6.78;;;4.13;;
30299;SDS011;17110;52.602;12.998;2023-08-07T05:44:16;6.25;;;4.55;;
30299;SDS011;17110;52.602;12.998;2023-08-07T05:46:41;5.40;;;4.28;;
30299;SDS011;17110;52.602;12.998;2023-08-07T05:49:07;4.70;;;3.72;;
30299;SDS011;17110;52.602;12.998;2023-08-07T05:51:33;5.75;;;3.55;;
30299;SDS011;17110;52.602;12.998;2023-08-07T05:53:59;8.88;;;4.20;;
30299;SDS011;17110;52.602;12.998;2023-08-07T05:56:25;6.28;;;3.88;;
30299;SDS011;17110;52.602;12.998;2023-08-07T05:58:51;7.25;;;4.03;;
30299;SDS011;17110;52.602;12.998;2023-08-07T06:01:16;6.97;;;4.43;;
30299;SDS011;17110;52.602;12.998;2023-08-07T06:03:42;4.55;;;3.67;;
30299;SDS011;17110;52.602;12.998;2023-08-07T06:06:07;5.47;;;3.70;;
30299;SDS011;17110;52.602;12.998;2023-08-07T06:08:33;8.30;;;3.85;;
30299;SDS011;17110;52.602;12.998;2023-08-07T06:11:00;7.70;;;3.55;;
30299;SDS011;17110;52.602;12.998;2023-08-07T06:13:26;6.97;;;4.13;;
30299;SDS011;17110;52.602;12.998;2023-08-07T06:15:51;4.25;;;3.63;;
30299;SDS011;17110;52.602;12.998;2023-08-07T06:18:17;7.65;;;3.55;;
30299;SDS011;17110;52.602;12.998;2023-08-07T06:20:43;4.45;;;3.20;;
30299;SDS011;17110;52.602;12.998;2023-08-07T06:23:08;5.93;;;3.60;;
30299;SDS011;17110;52.602;12.998;2023-08-07T06:25:34;6.57;;;3.58;;
30299;SDS011;17110;52.602;12.998;2023-08-07T06:28:01;4.93;;;3.55;;
30299;SDS011;17110;52.602;12.998;2023-08-07T06:30:26;4.00;;;2.90;;
30299;SDS011;17110;52.602;12.998;2023-08-07T06:32:52;6.78;;;3.67;;
30299;SDS011;17110;52.602;12.998;2023-08-07T06:35:18;6.60;;;3.45;;
30299;SDS011;17110;52.602;12.998;2023-08-07T06:37:43;4.72;;;3.03;;
30299;SDS011;17110;52.602;12.998;2023-08-07T06:40:09;4.22;;;2.83;;
30299;SDS011;17110;52.602;12.998;2023-08-07T06:42:35;5.75;;;2.80;;
30299;SDS011;17110;52.602;12.998;2023-08-07T06:45:02;6.88;;;2.83;;
30299;SDS011;17110;52.602;12.998;2023-08-07T06:47:29;5.50;;;2.80;;
30299;SDS011;17110;52.602;12.998;2023-08-07T06:49:55;5.47;;;2.55;;
30299;SDS011;17110;52.602;12.998;2023-08-07T06:52:20;4.03;;;2.72;;
30299;SDS011;17110;52.602;12.998;2023-08-07T06:54:46;3.40;;;2.28;;
30299;SDS011;17110;52.602;12.998;2023-08-07T06:57:12;7.10;;;3.08;;
30299;SDS011;17110;52.602;12.998;2023-08-07T06:59:37;3.75;;;2.47;;
30299;SDS011;17110;52.602;12.998;2023-08-07T07:02:05;8.43;;;2.58;;
30299;SDS011;17110;52.602;12.998;2023-08-07T07:04:31;6.18;;;2.53;;
30299;SDS011;17110;52.602;12.998;2023-08-07T07:06:56;9.15;;;2.88;;
30299;SDS011;17110;52.602;12.998;2023-08-07T07:09:25;3.33;;;2.40;;
30299;SDS011;17110;52.602;12.998;2023-08-07T07:11:51;4.28;;;2.25;;
30299;SDS011;17110;52.602;12.998;2023-08-07T07:14:17;8.57;;;3.22;;
30299;SDS011;17110;52.602;12.998;2023-08-07T07:16:42;5.47;;;2.67;;
30299;SDS011;17110;52.602;12.998;2023-08-07T07:19:09;4.28;;;2.47;;
30299;SDS011;17110;52.602;12.998;2023-08-07T07:21:35;7.43;;;2.40;;
30299;SDS011;17110;52.602;12.998;2023-08-07T07:24:01;4.53;;;2.20;;
30299;SDS011;17110;52.602;12.998;2023-08-07T07:26:27;5.80;;;2.58;;
30299;SDS011;17110;52.602;12.998;2023-08-07T07:28:53;6.93;;;2.50;;
30299;SDS011;17110;52.602;12.998;2023-08-07T07:31:18;5.57;;;2.60;;
30299;SDS011;17110;52.602;12.998;2023-08-07T07:33:44;3.53;;;2.20;;
30299;SDS011;17110;52.602;12.998;2023-08-07T07:36:14;5.60;;;2.35;;
30299;SDS011;17110;52.602;12.998;2023-08-07T07:38:40;4.78;;;2.50;;
30299;SDS011;17110;52.602;12.998;2023-08-07T07:41:06;3.53;;;2.40;;
30299;SDS011;17110;52.602;12.998;2023-08-07T07:43:31;6.30;;;2.53;;
30299;SDS011;17110;52.602;12.998;2023-08-07T07:45:57;9.18;;;3.22;;
30299;SDS011;17110;52.602;12.998;2023-08-07T07:48:23;6.35;;;2.40;;
30299;SDS011;17110;52.602;12.998;2023-08-07T07:50:48;5.60;;;2.45;;
30299;SDS011;17110;52.602;12.998;2023-08-07T07:53:15;6.00;;;2.95;;
30299;SDS011;17110;52.602;12.998;2023-08-07T07:55:41;5.70;;;2.30;;
30299;SDS011;17110;52.602;12.998;2023-08-07T07:58:11;4.45;;;2.63;;
30299;SDS011;17110;52.602;12.998;2023-08-07T08:00:37;6.18;;;2.60;;
30299;SDS011;17110;52.602;12.998;2023-08-07T08:03:03;3.42;;;2.60;;
30299;SDS011;17110;52.602;12.998;2023-08-07T08:05:28;4.30;;;2.60;;
30299;SDS011;17110;52.602;12.998;2023-08-07T08:07:54;7.13;;;2.67;;
30299;SDS011;17110;52.602;12.998;2023-08-07T08:10:21;6.50;;;2.85;;
30299;SDS011;17110;52.602;12.998;2023-08-07T08:12:47;4.18;;;2.65;;
30299;SDS011;17110;52.602;12.998;2023-08-07T08:15:12;4.60;;;2.85;;
30299;SDS011;17110;52.602;12.998;2023-08-07T08:17:38;4.28;;;2.40;;
30299;SDS011;17110;52.602;12.998;2023-08-07T08:20:04;7.07;;;2.45;;
30299;SDS011;17110;52.602;12.998;2023-08-07T08:22:31;5.25;;;2.70;;
30299;SDS011;17110;52.602;12.998;2023-08-07T08:24:56;5.82;;;2.60;;
30299;SDS011;17110;52.602;12.998;2023-08-07T08:27:23;5.20;;;2.35;;
30299;SDS011;17110;52.602;12.998;2023-08-07T08:29:49;4.28;;;2.15;;
30299;SDS011;17110;52.602;12.998;2023-08-07T08:32:15;7.40;;;2.60;;
30299;SDS011;17110;52.602;12.998;2023-08-07T08:34:40;5.35;;;2.47;;
30299;SDS011;17110;52.602;12.998;2023-08-07T08:37:06;4.45;;;2.28;;
30299;SDS011;17110;52.602;12.998;2023-08-07T08:39:31;4.95;;;2.38;;
30299;SDS011;17110;52.602;12.998;2023-08-07T08:42:00;4.65;;;2.40;;
30299;SDS011;17110;52.602;12.998;2023-08-07T08:44:28;7.72;;;2.80;;
30299;SDS011;17110;52.602;12.998;2023-08-07T08:46:56;3.17;;;2.10;;
30299;SDS011;17110;52.602;12.998;2023-08-07T08:49:26;3.30;;;2.22;;
30299;SDS011;17110;52.602;12.998;2023-08-07T08:51:57;4.03;;;2.55;;
30299;SDS011;17110;52.602;12.998;2023-08-07T08:54:23;5.70;;;2.95;;
30299;SDS011;17110;52.602;12.998;2023-08-07T08:56:49;5.78;;;2.75;;
30299;SDS011;17110;52.602;12.998;2023-08-07T08:59:15;4.32;;;2.03;;
30299;SDS011;17110;52.602;12.998;2023-08-07T09:01:42;5.65;;;2.20;;
30299;SDS011;17110;52.602;12.998;2023-08-07T09:04:08;5.28;;;2.25;;
30299;SDS011;17110;52.602;12.998;2023-08-07T09:06:34;4.93;;;2.55;;
30299;SDS011;17110;52.602;12.998;2023-08-07T09:09:00;5.22;;;2.00;;
30299;SDS011;17110;52.602;12.998;2023-08-07T09:11:27;4.80;;;2.25;;
30299;SDS011;17110;52.602;12.998;2023-08-07T09:13:54;5.20;;;2.47;;
30299;SDS011;17110;52.602;12.998;2023-08-07T09:16:21;3.85;;;1.90;;
30299;SDS011;17110;52.602;12.998;2023-08-07T09:18:49;5.60;;;2.13;;
30299;SDS011;17110;52.602;12.998;2023-08-07T09:21:14;7.50;;;2.25;;
30299;SDS011;17110;52.602;12.998;2023-08-07T09:23:40;3.67;;;2.00;;
30299;SDS011;17110;52.602;12.998;2023-08-07T09:26:06;6.40;;;2.72;;
30299;SDS011;17110;52.602;12.998;2023-08-07T09:28:32;3.58;;;2.60;;
30299;SDS011;17110;52.602;12.998;2023-08-07T09:30:58;5.28;;;2.60;;
30299;SDS011;17110;52.602;12.998;2023-08-07T09:33:26;3.88;;;2.30;;
30299;SDS011;17110;52.602;12.998;2023-08-07T09:35:53;4.95;;;2.28;;
30299;SDS011;17110;52.602;12.998;2023-08-07T09:38:22;7.18;;;2.20;;
30299;SDS011;17110;52.602;12.998;2023-08-07T09:40:48;8.30;;;2.33;;
30299;SDS011;17110;52.602;12.998;2023-08-07T09:43:19;5.03;;;2.42;;
30299;SDS011;17110;52.602;12.998;2023-08-07T09:45:46;4.85;;;2.40;;
30299;SDS011;17110;52.602;12.998;2023-08-07T09:48:12;5.32;;;2.50;;
30299;SDS011;17110;52.602;12.998;2023-08-07T09:50:38;5.53;;;2.85;;
30299;SDS011;17110;52.602;12.998;2023-08-07T09:53:05;4.47;;;2.13;;
30299;SDS011;17110;52.602;12.998;2023-08-07T09:55:31;5.47;;;2.25;;
30299;SDS011;17110;52.602;12.998;2023-08-07T09:57:57;8.40;;;2.30;;
30299;SDS011;17110;52.602;12.998;2023-08-07T10:00:25;5.78;;;1.90;;
30299;SDS011;17110;52.602;12.998;2023-08-07T10:02:51;6.32;;;2.03;;
30299;SDS011;17110;52.602;12.998;2023-08-07T10:05:19;4.88;;;1.80;;
30299;SDS011;17110;52.602;12.998;2023-08-07T10:07:44;4.45;;;1.73;;
30299;SDS011;17110;52.602;12.998;2023-08-07T10:10:13;6.07;;;3.38;;
30299;SDS011;17110;52.602;12.998;2023-08-07T10:12:39;4.43;;;2.00;;
30299;SDS011;17110;52.602;12.998;2023-08-07T10:15:07;3.85;;;1.77;;
30299;SDS011;17110;52.602;12.998;2023-08-07T10:17:33;5.20;;;1.90;;
30299;SDS011;17110;52.602;12.998;2023-08-07T10:19:59;4.97;;;1.92;;
30299;SDS011;17110;52.602;12.998;2023-08-07T10:22:25;2.75;;;1.70;;
30299;SDS011;17110;52.602;12.998;2023-08-07T10:24:54;5.13;;;2.07;;
30299;SDS011;17110;52.602;12.998;2023-08-07T10:27:25;5.07;;;1.95;;
30299;SDS011;17110;52.602;12.998;2023-08-07T10:29:52;7.75;;;2.05;;
30299;SDS011;17110;52.602;12.998;2023-08-07T10:32:20;3.88;;;2.10;;
30299;SDS011;17110;52.602;12.998;2023-08-07T10:34:49;6.97;;;2.22;;
30299;SDS011;17110;52.602;12.998;2023-08-07T10:40:00;7.30;;;2.08;;
30299;SDS011;17110;52.602;12.998;2023-08-07T10:42:28;7.03;;;2.20;;
30299;SDS011;17110;52.602;12.998;2023-08-07T10:44:54;5.20;;;1.90;;
30299;SDS011;17110;52.602;12.998;2023-08-07T10:47:30;7.30;;;2.85;;
30299;SDS011;17110;52.602;12.998;2023-08-07T10:49:58;10.23;;;3.67;;
30299;SDS011;17110;52.602;12.998;2023-08-07T10:52:24;6.18;;;2.83;;
30299;SDS011;17110;52.602;12.998;2023-08-07T10:54:50;6.85;;;3.05;;
30299;SDS011;17110;52.602;12.998;2023-08-07T10:57:16;5.20;;;2.90;;
30299;SDS011;17110;52.602;12.998;2023-08-07T10:59:48;6.55;;;2.95;;
30299;SDS011;17110;52.602;12.998;2023-08-07T11:02:22;4.13;;;3.03;;
30299;SDS011;17110;52.602;12.998;2023-08-07T11:04:48;8.40;;;2.78;;
30299;SDS011;17110;52.602;12.998;2023-08-07T11:07:21;7.07;;;2.72;;
30299;SDS011;17110;52.602;12.998;2023-08-07T11:09:48;4.88;;;3.15;;
30299;SDS011;17110;52.602;12.998;2023-08-07T11:12:14;8.27;;;2.88;;
30299;SDS011;17110;52.602;12.998;2023-08-07T11:14:39;5.50;;;2.85;;
30299;SDS011;17110;52.602;12.998;2023-08-07T11:17:07;6.03;;;2.90;;
30299;SDS011;17110;52.602;12.998;2023-08-07T11:19:33;8.45;;;3.10;;
30299;SDS011;17110;52.602;12.998;2023-08-07T11:21:58;7.95;;;2.80;;
30299;SDS011;17110;52.602;12.998;2023-08-07T11:24:26;4.00;;;2.70;;
30299;SDS011;17110;52.602;12.998;2023-08-07T11:26:52;5.82;;;2.75;;
30299;SDS011;17110;52.602;12.998;2023-08-07T11:29:18;8.82;;;3.78;;
30299;SDS011;17110;52.602;12.998;2023-08-07T11:31:44;4.13;;;3.20;;
30299;SDS011;17110;52.602;12.998;2023-08-07T11:34:11;6.60;;;2.90;;
30299;SDS011;17110;52.602;12.998;2023-08-07T11:36:40;9.05;;;3.50;;
30299;SDS011;17110;52.602;12.998;2023-08-07T11:39:06;5.27;;;2.87;;
30299;SDS011;17110;52.602;12.998;2023-08-07T11:41:32;10.00;;;3.70;;
30299;SDS011;17110;52.602;12.998;2023-08-07T11:43:57;6.13;;;3.10;;
30299;SDS011;17110;52.602;12.998;2023-08-07T11:46:23;6.32;;;3.38;;
30299;SDS011;17110;52.602;12.998;2023-08-07T11:48:49;6.22;;;2.65;;
30299;SDS011;17110;52.602;12.998;2023-08-07T11:51:18;4.78;;;2.67;;
30299;SDS011;17110;52.602;12.998;2023-08-07T11:53:45;7.18;;;2.95;;
30299;SDS011;17110;52.602;12.998;2023-08-07T11:56:11;10.18;;;2.65;;
30299;SDS011;17110;52.602;12.998;2023-08-07T11:58:38;6.47;;;2.83;;
30299;SDS011;17110;52.602;12.998;2023-08-07T12:01:05;4.88;;;2.60;;
30299;SDS011;17110;52.602;12.998;2023-08-07T12:03:32;6.75;;;2.80;;
30299;SDS011;17110;52.602;12.998;2023-08-07T12:06:01;6.72;;;2.75;;
30299;SDS011;17110;52.602;12.998;2023-08-07T12:08:32;7.55;;;2.50;;
30299;SDS011;17110;52.602;12.998;2023-08-07T12:11:00;6.97;;;2.90;;
30299;SDS011;17110;52.602;12.998;2023-08-07T12:13:27;6.72;;;2.55;;
30299;SDS011;17110;52.602;12.998;2023-08-07T12:15:53;9.32;;;3.67;;
30299;SDS011;17110;52.602;12.998;2023-08-07T12:18:20;7.47;;;3.50;;
30299;SDS011;17110;52.602;12.998;2023-08-07T12:20:45;9.32;;;3.15;;
30299;SDS011;17110;52.602;12.998;2023-08-07T12:23:13;11.20;;;3.25;;
30299;SDS011;17110;52.602;12.998;2023-08-07T12:25:41;7.90;;;3.17;;
30299;SDS011;17110;52.602;12.998;2023-08-07T12:28:06;10.68;;;3.10;;
30299;SDS011;17110;52.602;12.998;2023-08-07T12:30:33;8.57;;;3.00;;
30299;SDS011;17110;52.602;12.998;2023-08-07T12:32:59;9.00;;;3.45;;
30299;SDS011;17110;52.602;12.998;2023-08-07T12:35:25;8.73;;;2.92;;
30299;SDS011;17110;52.602;12.998;2023-08-07T12:37:51;8.95;;;3.25;;
30299;SDS011;17110;52.602;12.998;2023-08-07T12:40:16;9.00;;;2.80;;
30299;SDS011;17110;52.602;12.998;2023-08-07T12:42:43;8.00;;;3.55;;
30299;SDS011;17110;52.602;12.998;2023-08-07T12:45:09;6.65;;;3.35;;
30299;SDS011;17110;52.602;12.998;2023-08-07T12:47:35;9.30;;;3.00;;
30299;SDS011;17110;52.602;12.998;2023-08-07T12:50:00;8.63;;;3.08;;
30299;SDS011;17110;52.602;12.998;2023-08-07T12:52:26;10.25;;;3.63;;
30299;SDS011;17110;52.602;12.998;2023-08-07T12:54:52;10.32;;;3.30;;
30299;SDS011;17110;52.602;12.998;2023-08-07T12:57:17;6.35;;;2.75;;
30299;SDS011;17110;52.602;12.998;2023-08-07T12:59:44;10.65;;;2.80;;
30299;SDS011;17110;52.602;12.998;2023-08-07T13:02:10;7.25;;;2.75;;
30299;SDS011;17110;52.602;12.998;2023-08-07T13:04:35;10.43;;;3.00;;
30299;SDS011;17110;52.602;12.998;2023-08-07T13:07:01;6.32;;;3.13;;
30299;SDS011;17110;52.602;12.998;2023-08-07T13:09:27;7.85;;;3.00;;
30299;SDS011;17110;52.602;12.998;2023-08-07T13:11:52;9.52;;;3.28;;
30299;SDS011;17110;52.602;12.998;2023-08-07T13:14:18;8.52;;;2.70;;
30299;SDS011;17110;52.602;12.998;2023-08-07T13:16:45;8.98;;;2.90;;
30299;SDS011;17110;52.602;12.998;2023-08-07T13:19:11;9.38;;;2.97;;
30299;SDS011;17110;52.602;12.998;2023-08-07T13:21:36;10.68;;;2.85;;
30299;SDS011;17110;52.602;12.998;2023-08-07T13:24:02;6.88;;;2.80;;
30299;SDS011;17110;52.602;12.998;2023-08-07T13:26:28;8.25;;;2.88;;
30299;SDS011;17110;52.602;12.998;2023-08-07T13:28:54;8.45;;;2.60;;
30299;SDS011;17110;52.602;12.998;2023-08-07T13:31:19;8.07;;;2.90;;
30299;SDS011;17110;52.602;12.998;2023-08-07T13:33:46;14.10;;;3.95;;
30299;SDS011;17110;52.602;12.998;2023-08-07T13:36:12;8.50;;;3.40;;
30299;SDS011;17110;52.602;12.998;2023-08-07T13:38:37;6.10;;;3.03;;
30299;SDS011;17110;52.602;12.998;2023-08-07T13:41:03;8.50;;;3.60;;
30299;SDS011;17110;52.602;12.998;2023-08-07T13:43:29;9.18;;;3.20;;
30299;SDS011;17110;52.602;12.998;2023-08-07T13:45:54;6.47;;;3.53;;
30299;SDS011;17110;52.602;12.998;2023-08-07T13:48:20;7.63;;;3.35;;
30299;SDS011;17110;52.602;12.998;2023-08-07T13:50:47;7.60;;;3.17;;
30299;SDS011;17110;52.602;12.998;2023-08-07T13:53:12;8.90;;;2.80;;
30299;SDS011;17110;52.602;12.998;2023-08-07T13:55:38;8.43;;;3.08;;
30299;SDS011;17110;52.602;12.998;2023-08-07T13:58:04;7.45;;;3.47;;
30299;SDS011;17110;52.602;12.998;2023-08-07T14:00:29;8.13;;;3.25;;
30299;SDS011;17110;52.602;12.998;2023-08-07T14:02:55;11.07;;;3.20;;
30299;SDS011;17110;52.602;12.998;2023-08-07T14:05:21;10.38;;;3.05;;
30299;SDS011;17110;52.602;12.998;2023-08-07T14:07:48;9.02;;;2.65;;
30299;SDS011;17110;52.602;12.998;2023-08-07T14:10:13;10.65;;;3.00;;
30299;SDS011;17110;52.602;12.998;2023-08-07T14:12:39;8.25;;;3.47;;
30299;SDS011;17110;52.602;12.998;2023-08-07T14:15:05;8.32;;;2.80;;
30299;SDS011;17110;52.602;12.998;2023-08-07T14:17:31;11.65;;;3.97;;
30299;SDS011;17110;52.602;12.998;2023-08-07T14:19:57;9.77;;;2.75;;
30299;SDS011;17110;52.602;12.998;2023-08-07T14:22:22;10.90;;;3.38;;
30299;SDS011;17110;52.602;12.998;2023-08-07T14:24:49;7.78;;;3.13;;
30299;SDS011;17110;52.602;12.998;2023-08-07T14:27:15;10.93;;;3.22;;
30299;SDS011;17110;52.602;12.998;2023-08-07T14:29:41;8.40;;;4.03;;